Burdwan, India

7:17 PM IST on October 25, 2014 (GMT +0530)
Netaji Subhash Chandra Bose International | Change Station
CLOSE
Current Station
Airport
Location: Kolkata,
Elevation: 20 ft
Nearby Weather Stations

Elev 20 ft 22.65 °N, 88.44 °E | Updated 57 minutes ago

Haze
Haze
82 °F
Feels Like 85 °F
N
0
Wind Variable Wind from North

Today
High -- | Low -- °F
--% Chance of Precip.
Yesterday
High -- | Low -- °F
Precip. -- in
5:39 AM 5:05 PM
Waxing Crescent, 3% visible
Pressure 29.86 in
Visibility -9999.0 miles
Clouds Few 2000 ft
Scattered Clouds 10000 ft
Heat Index 85 °F
Dew Point 66 °F
Humidity 58%
Rainfall 0.00 in
Snow Depth Not available.
UV 0 out of 12
Pollen Not available.
Air Quality Not available.
Flu Activity Not available.
METAR VECC 251250Z 00000KT 3200 HZ FEW020 SCT100 28/19 Q1011 BECMG 3000 HZ

More Conditions Fewer Conditions

Pressure 29.86 in
Visibility -9999.0 miles
Clouds Few 2000 ft
Scattered Clouds 10000 ft
Heat Index 85 °F
Dew Point 66 °F
Humidity 58%
Rainfall 0.00 in
Snow Depth Not available.
UV 0 out of 12
Pollen Not available.
Air Quality Not available.
Flu Activity Not available.
METAR VECC 251250Z 00000KT 3200 HZ FEW020 SCT100 28/19 Q1011 BECMG 3000 HZ

More Conditions Fewer Conditions

10-Day Weather Forecast

Almanac

Astronomy

Oct. 25, 2014 Rise Set
Actual Time 5:39 AM IST 5:05 PM IST
Civil Twilight 5:16 AM IST 5:28 PM IST
Nautical Twilight 4:50 AM IST 5:54 PM IST
Astronomical Twilight 4:24 AM IST 6:20 PM IST
Moon 6:43 AM IST 6:13 PM IST
Length of Visible Light 12h 11m
Length of Day
11h 25m
Tomorrow will be 1m 13s shorter.
Waxing Crescent, 3% of the Moon is Illuminated
Today
Waxing Crescent
Oct 30
First Quarter
Nov 6
Full
Nov 14
Last Quarter
Nov 22
New

Yesterday's Extremes

Country Highs Country Lows

Community

WunderPhotos

Upload Photos

1,764,830 photos uploaded!

Nearby

Snow Depth

Not available.

Earthquake Activity

City Distance Mag. Time & Date
No recent earthquake activity has been reported nearby.
Minimum magnitude displayed is 2.5.

Coastal Water Temperatures

Place Temperature
No Stations Reporting

Nearby Weather Stations